createdAt,value
2018-05-13T00:01:02.146Z,41.28
2018-05-13T00:03:28.789Z,41.33
2018-05-13T00:05:55.481Z,40.97
2018-05-13T00:08:22.129Z,42.10
2018-05-13T00:10:48.866Z,42.35
2018-05-13T00:13:16.410Z,43.42
2018-05-13T00:15:43.093Z,43.65
2018-05-13T00:18:09.737Z,41.50
2018-05-13T00:20:36.397Z,41.37
2018-05-13T00:23:03.052Z,39.58
2018-05-13T00:25:29.716Z,42.62
2018-05-13T00:27:56.372Z,41.10
2018-05-13T00:30:23.057Z,44.03
2018-05-13T00:32:49.723Z,41.33
2018-05-13T00:35:16.347Z,45.05
2018-05-13T00:37:43.031Z,44.03
2018-05-13T00:40:09.669Z,43.50
2018-05-13T00:42:36.339Z,40.08
2018-05-13T00:45:02.990Z,40.12
2018-05-13T00:47:29.852Z,41.20
2018-05-13T00:49:56.501Z,42.47
2018-05-13T00:52:23.155Z,44.15
2018-05-13T00:54:54.618Z,45.08
2018-05-13T00:57:21.264Z,42.00
2018-05-13T00:59:47.898Z,42.92
2018-05-13T01:02:14.539Z,40.45
2018-05-13T01:04:41.192Z,43.55
2018-05-13T01:07:07.821Z,44.03
2018-05-13T01:09:34.469Z,43.47
2018-05-13T01:12:01.094Z,42.78
2018-05-13T01:14:27.761Z,41.17
2018-05-13T01:16:54.400Z,41.00
2018-05-13T01:19:21.050Z,41.03
2018-05-13T01:21:47.678Z,43.85
2018-05-13T01:24:14.339Z,42.28
2018-05-13T01:26:40.959Z,45.03
2018-05-13T01:29:07.608Z,42.22
2018-05-13T01:31:34.263Z,43.13
2018-05-13T01:34:00.892Z,44.08
2018-05-13T01:36:27.528Z,43.15
2018-05-13T01:38:54.498Z,43.70
2018-05-13T01:41:21.173Z,41.13
2018-05-13T01:43:47.798Z,44.80
2018-05-13T01:46:14.420Z,42.53
2018-05-13T01:48:41.062Z,42.60
2018-05-13T01:51:07.727Z,42.47
2018-05-13T01:53:34.343Z,43.17
2018-05-13T01:56:01.043Z,44.20
2018-05-13T01:58:27.667Z,40.03
2018-05-13T02:00:54.485Z,42.30
2018-05-13T02:03:21.114Z,41.58
2018-05-13T02:05:47.760Z,40.90
2018-05-13T02:08:14.379Z,41.92
2018-05-13T02:10:41.026Z,46.00
2018-05-13T02:13:07.677Z,45.05
2018-05-13T02:15:34.314Z,41.58
2018-05-13T02:18:00.967Z,41.88
2018-05-13T02:20:27.658Z,40.85
2018-05-13T02:22:54.279Z,41.25
2018-05-13T02:25:20.946Z,43.00
2018-05-13T02:27:47.574Z,43.72
2018-05-13T02:30:14.234Z,40.75
2018-05-13T02:32:40.851Z,44.65
2018-05-13T02:35:07.511Z,41.85
2018-05-13T02:37:34.148Z,43.75
2018-05-13T02:40:00.804Z,45.28
2018-05-13T02:42:27.451Z,47.28
2018-05-13T02:44:54.136Z,43.25
2018-05-13T02:47:20.783Z,42.15
2018-05-13T02:49:47.418Z,44.22
2018-05-13T02:52:14.068Z,45.40
2018-05-13T02:54:40.725Z,42.83
2018-05-13T02:57:07.378Z,46.30
2018-05-13T02:59:34.052Z,41.72
2018-05-13T03:02:00.949Z,46.65
2018-05-13T03:04:27.575Z,42.10
2018-05-13T03:06:54.240Z,44.35
2018-05-13T03:09:20.882Z,41.78
2018-05-13T03:11:47.503Z,42.05
2018-05-13T03:14:14.140Z,41.25
2018-05-13T03:16:40.793Z,40.55
2018-05-13T03:19:07.467Z,42.03
2018-05-13T03:21:34.061Z,42.90
2018-05-13T03:24:00.898Z,41.50
2018-05-13T03:26:27.516Z,41.10
2018-05-13T03:28:54.154Z,39.30
2018-05-13T03:31:20.799Z,41.00
2018-05-13T03:33:47.443Z,38.55
2018-05-13T03:36:14.066Z,39.33
2018-05-13T03:38:40.731Z,40.60
2018-05-13T03:41:07.358Z,38.80
2018-05-13T03:43:34.004Z,39.20
2018-05-13T03:46:00.630Z,38.80
2018-05-13T03:48:27.286Z,39.20
2018-05-13T03:50:53.943Z,36.97
2018-05-13T03:53:20.570Z,37.70
2018-05-13T03:55:47.207Z,36.95
2018-05-13T03:58:13.865Z,36.90
2018-05-13T04:00:40.508Z,34.70
2018-05-13T04:03:07.148Z,36.70
2018-05-13T04:05:33.795Z,36.33
2018-05-13T04:08:18.176Z,34.25
2018-05-13T04:10:50.715Z,35.05
2018-05-13T04:13:23.136Z,34.03
2018-05-13T04:15:49.763Z,37.28
2018-05-13T04:18:16.407Z,36.90
2018-05-13T04:20:43.048Z,36.00
2018-05-13T04:23:09.686Z,35.70
2018-05-13T04:25:36.332Z,35.00
2018-05-13T04:28:02.977Z,36.38
2018-05-13T04:30:29.667Z,34.65
2018-05-13T04:32:56.295Z,33.22
2018-05-13T04:35:23.016Z,34.50
2018-05-13T04:37:49.647Z,33.03
2018-05-13T04:40:16.283Z,36.70
2018-05-13T04:42:42.939Z,35.60
2018-05-13T04:45:09.848Z,33.15
2018-05-13T04:47:36.482Z,35.83
2018-05-13T04:50:03.141Z,34.58
2018-05-13T04:52:29.815Z,33.83
2018-05-13T04:54:56.443Z,35.08
2018-05-13T04:57:23.106Z,35.83
2018-05-13T04:59:49.724Z,34.80
2018-05-13T05:02:16.398Z,34.95
2018-05-13T05:04:43.012Z,34.95
2018-05-13T05:07:09.800Z,34.80
2018-05-13T05:09:36.418Z,33.30
2018-05-13T05:12:03.074Z,33.05
2018-05-13T05:14:29.713Z,33.42
2018-05-13T05:16:56.367Z,35.25
2018-05-13T05:19:23.048Z,32.38
2018-05-13T05:21:49.715Z,36.30
2018-05-13T05:24:16.347Z,30.92
2018-05-13T05:26:43.025Z,31.50
2018-05-13T05:29:09.649Z,31.48
2018-05-13T05:31:36.309Z,32.63
2018-05-13T05:34:03.000Z,33.55
2018-05-13T05:36:29.631Z,31.52
2018-05-13T05:38:56.307Z,30.00
2018-05-13T05:41:22.925Z,32.47
2018-05-13T05:43:49.587Z,28.85
2018-05-13T05:46:16.268Z,29.63
2018-05-13T05:48:42.908Z,32.17
2018-05-13T05:51:09.549Z,29.90
2018-05-13T05:53:36.195Z,31.10
2018-05-13T05:56:02.839Z,31.90
2018-05-13T05:58:29.545Z,28.20
2018-05-13T06:00:56.167Z,28.93
2018-05-13T06:03:22.851Z,29.50
2018-05-13T06:05:49.520Z,30.00
2018-05-13T06:08:16.421Z,31.60
2018-05-13T06:10:43.055Z,29.97
2018-05-13T06:13:09.686Z,29.60
2018-05-13T06:15:36.322Z,29.87
2018-05-13T06:18:02.993Z,30.00
2018-05-13T06:20:29.663Z,27.00
2018-05-13T06:22:56.302Z,30.10
2018-05-13T06:25:22.958Z,31.00
2018-05-13T06:27:49.574Z,28.53
2018-05-13T06:30:16.213Z,29.90
2018-05-13T06:32:42.924Z,29.83
2018-05-13T06:35:09.575Z,30.57
2018-05-13T06:37:36.214Z,30.40
2018-05-13T06:40:03.004Z,29.80
2018-05-13T06:42:29.710Z,31.20
2018-05-13T06:44:56.337Z,28.83
2018-05-13T06:47:22.992Z,28.57
2018-05-13T06:49:49.612Z,30.43
2018-05-13T06:52:16.280Z,28.77
2018-05-13T06:54:42.915Z,29.47
2018-05-13T06:57:09.568Z,29.80
2018-05-13T06:59:36.192Z,27.93
2018-05-13T07:02:02.859Z,28.43
2018-05-13T07:04:29.515Z,28.90
2018-05-13T07:06:56.163Z,27.87
2018-05-13T07:09:22.808Z,29.23
2018-05-13T07:11:49.452Z,29.47
2018-05-13T07:14:16.114Z,28.70
2018-05-13T07:16:43.541Z,33.50
2018-05-13T07:19:10.173Z,29.77
2018-05-13T07:21:36.814Z,33.30
2018-05-13T07:24:03.490Z,29.03
2018-05-13T07:26:30.130Z,27.47
2018-05-13T07:28:56.802Z,30.60
2018-05-13T07:31:23.489Z,28.43
2018-05-13T07:33:50.131Z,29.70
2018-05-13T07:36:16.924Z,27.50
2018-05-13T07:38:43.618Z,30.63
2018-05-13T07:41:10.262Z,29.57
2018-05-13T07:43:36.905Z,28.43
2018-05-13T07:46:03.557Z,28.20
2018-05-13T07:48:30.191Z,31.23
2018-05-13T07:50:56.884Z,28.60
2018-05-13T07:53:23.867Z,30.50
2018-05-13T07:55:50.527Z,28.13
2018-05-13T07:58:17.190Z,28.50
2018-05-13T08:00:43.866Z,32.17
2018-05-13T08:03:10.513Z,30.40
2018-05-13T08:05:37.151Z,27.50
2018-05-13T08:08:04.002Z,27.30
2018-05-13T08:10:30.716Z,29.50
2018-05-13T08:12:57.380Z,28.83
2018-05-13T08:15:24.002Z,28.60
2018-05-13T08:17:50.645Z,28.80
2018-05-13T08:20:17.371Z,27.37
2018-05-13T08:22:43.948Z,29.80
2018-05-13T08:25:10.604Z,27.80
2018-05-13T08:27:37.239Z,27.97
2018-05-13T08:30:03.888Z,28.23
2018-05-13T08:32:30.591Z,28.40
2018-05-13T08:34:57.211Z,27.60
2018-05-13T08:37:23.865Z,28.93
2018-05-13T08:39:50.520Z,29.43
2018-05-13T08:42:17.163Z,27.07
2018-05-13T08:44:43.791Z,26.80
2018-05-13T08:47:10.436Z,28.07
2018-05-13T08:49:37.075Z,27.30
2018-05-13T08:52:03.738Z,27.63
2018-05-13T08:54:30.364Z,29.53
2018-05-13T08:56:57.031Z,28.97
2018-05-13T08:59:23.659Z,27.87
2018-05-13T09:01:50.293Z,28.43
2018-05-13T09:04:16.940Z,29.00
2018-05-13T09:06:43.626Z,28.20
2018-05-13T09:09:10.261Z,28.70
2018-05-13T09:11:37.021Z,28.40
2018-05-13T09:14:03.729Z,31.07
2018-05-13T09:16:30.669Z,30.93
2018-05-13T09:18:57.353Z,30.90
2018-05-13T09:21:24.032Z,33.23
2018-05-13T09:23:51.231Z,32.17
2018-05-13T09:26:17.847Z,32.00
2018-05-13T09:28:44.532Z,31.80
2018-05-13T09:31:11.230Z,32.13
2018-05-13T09:33:37.880Z,32.47
2018-05-13T09:36:04.508Z,31.37
2018-05-13T09:38:31.175Z,31.97
2018-05-13T09:40:57.800Z,34.77
2018-05-13T09:43:24.475Z,32.33
2018-05-13T09:45:51.158Z,32.17
2018-05-13T09:48:17.759Z,30.37
2018-05-13T09:50:44.389Z,32.90
2018-05-13T09:53:11.052Z,32.33
2018-05-13T09:55:37.700Z,30.40
2018-05-13T09:58:04.341Z,30.00
2018-05-13T10:00:31.004Z,29.93
2018-05-13T10:02:57.624Z,28.00
2018-05-13T10:05:24.888Z,27.73
2018-05-13T10:07:51.528Z,29.43
2018-05-13T10:10:18.188Z,32.53
2018-05-13T10:12:44.818Z,29.03
2018-05-13T10:15:11.517Z,28.90
2018-05-13T10:17:38.204Z,29.27
2018-05-13T10:20:05.396Z,33.20
2018-05-13T10:22:32.038Z,29.57
2018-05-13T10:24:58.734Z,29.20
2018-05-13T10:27:25.372Z,33.17
2018-05-13T10:42:52.192Z,34.13
2018-05-13T10:45:22.092Z,35.57
2018-05-13T10:47:48.765Z,30.03
2018-05-13T10:50:20.017Z,30.90
2018-05-13T10:52:50.765Z,32.47
2018-05-13T10:55:17.486Z,34.60
2018-05-13T10:57:44.202Z,32.13
2018-05-13T11:00:16.981Z,31.33
2018-05-13T11:02:45.616Z,31.80
2018-05-13T11:05:12.290Z,30.73
2018-05-13T11:07:39.153Z,32.47
2018-05-13T11:10:05.819Z,33.50
2018-05-13T11:12:32.608Z,31.73
2018-05-13T11:14:59.277Z,33.00
2018-05-13T11:27:10.954Z,30.70
2018-05-13T11:29:37.630Z,29.07
2018-05-13T11:32:05.116Z,27.57
2018-05-13T11:34:31.831Z,29.67
2018-05-13T11:36:58.809Z,29.67
2018-05-13T11:39:25.573Z,27.77
2018-05-13T11:41:52.204Z,26.20
2018-05-13T11:44:18.866Z,28.90
2018-05-13T11:46:45.578Z,26.00
2018-05-13T11:49:12.227Z,27.57
2018-05-13T11:51:38.857Z,27.07
2018-05-13T11:54:09.652Z,27.17
2018-05-13T11:56:36.332Z,29.30
2018-05-13T11:59:03.068Z,26.57
2018-05-13T12:01:29.711Z,25.43
2018-05-13T12:03:56.401Z,27.57
2018-05-13T12:06:23.748Z,26.50
2018-05-13T12:08:50.427Z,26.50
2018-05-13T12:11:17.105Z,28.33
2018-05-13T12:13:43.829Z,28.60
2018-05-13T12:16:10.532Z,28.03
2018-05-13T12:18:37.167Z,28.90
2018-05-13T12:21:03.909Z,28.60
2018-05-13T12:23:30.558Z,27.30
2018-05-13T12:25:57.183Z,29.57
2018-05-13T12:28:23.848Z,28.60
2018-05-13T12:30:50.551Z,27.63
2018-05-13T12:33:17.241Z,29.17
2018-05-13T12:35:44.250Z,31.07
2018-05-13T12:38:10.927Z,31.40
2018-05-13T12:40:37.661Z,31.30
2018-05-13T12:43:04.338Z,31.43
2018-05-13T12:45:31.836Z,31.07
2018-05-13T12:47:58.552Z,32.10
2018-05-13T12:50:25.212Z,33.00
2018-05-13T12:52:51.908Z,35.60
2018-05-13T12:55:18.725Z,49.30
2018-05-13T12:57:45.375Z,52.60
2018-05-13T13:00:12.102Z,57.27
2018-05-13T13:02:38.788Z,65.07
2018-05-13T13:05:05.488Z,61.97
2018-05-13T13:07:32.260Z,66.17
2018-05-13T13:10:02.873Z,68.10
2018-05-13T13:12:29.538Z,65.07
2018-05-13T13:14:56.179Z,69.60
2018-05-13T13:17:22.868Z,65.13
2018-05-13T13:19:49.552Z,68.03
2018-05-13T13:22:16.337Z,67.67
2018-05-13T13:24:42.904Z,66.43
2018-05-13T13:27:09.576Z,66.77
2018-05-13T13:29:36.296Z,67.57
2018-05-13T13:32:02.984Z,80.83
2018-05-13T13:34:29.664Z,76.50
2018-05-13T13:36:56.342Z,85.60
2018-05-13T13:39:23.048Z,93.18
2018-05-13T13:41:49.745Z,86.07
2018-05-13T13:44:16.446Z,93.40
2018-05-13T13:46:43.093Z,92.00
2018-05-13T13:49:09.845Z,87.85
2018-05-13T13:51:36.510Z,94.53
2018-05-13T13:54:03.213Z,87.53
2018-05-13T13:56:29.911Z,93.18
2018-05-13T13:58:56.591Z,90.97
2018-05-13T14:01:24.015Z,91.30
2018-05-13T14:03:50.701Z,86.30
2018-05-13T14:06:17.415Z,82.20
2018-05-13T14:08:44.108Z,83.30
2018-05-13T14:11:10.774Z,83.53
2018-05-13T14:13:37.487Z,85.03
2018-05-13T14:16:04.198Z,85.90
2018-05-13T14:18:30.973Z,78.30
2018-05-13T14:20:57.713Z,85.72
2018-05-13T14:23:24.352Z,84.18
2018-05-13T14:25:51.020Z,84.10
2018-05-13T14:28:17.716Z,79.82
2018-05-13T14:30:44.427Z,75.10
2018-05-13T14:33:11.136Z,77.93
2018-05-13T14:45:22.920Z,68.60
2018-05-13T14:47:49.553Z,68.57
2018-05-13T14:50:16.244Z,64.10
2018-05-13T14:52:43.030Z,62.35
2018-05-13T14:55:09.661Z,58.50
2018-05-13T14:57:36.351Z,57.88
2018-05-13T15:00:03.021Z,56.72
2018-05-13T15:02:29.703Z,52.88
2018-05-13T15:04:56.395Z,50.97
2018-05-13T15:07:28.828Z,52.22
2018-05-13T15:09:55.492Z,49.05
2018-05-13T15:12:22.994Z,47.08
2018-05-13T15:14:49.666Z,52.03
2018-05-13T15:17:16.354Z,48.05
2018-05-13T15:19:43.074Z,51.78
2018-05-13T15:22:14.614Z,43.95
2018-05-13T15:24:41.285Z,43.28
2018-05-13T15:27:07.972Z,45.05
2018-05-13T15:29:34.665Z,48.33
2018-05-13T15:32:01.531Z,46.17
2018-05-13T15:34:28.239Z,46.90
2018-05-13T15:36:54.852Z,47.72
2018-05-13T15:39:21.561Z,47.13
2018-05-13T15:41:48.220Z,48.08
2018-05-13T15:44:14.868Z,46.13
2018-05-13T15:46:41.524Z,49.72
2018-05-13T15:49:08.307Z,51.03
2018-05-13T15:51:34.980Z,54.90
2018-05-13T15:54:01.649Z,53.33
2018-05-13T15:56:28.296Z,51.80
2018-05-13T15:58:54.955Z,51.88
2018-05-13T16:01:21.914Z,55.33
2018-05-13T16:03:48.545Z,56.85
2018-05-13T16:06:15.227Z,57.42
2018-05-13T16:08:41.864Z,57.47
2018-05-13T16:11:08.552Z,59.95
2018-05-13T16:13:35.209Z,58.13
2018-05-13T16:16:01.916Z,65.45
2018-05-13T16:18:28.583Z,63.40
2018-05-13T16:20:55.271Z,63.30
2018-05-13T16:23:21.912Z,62.08
2018-05-13T16:25:48.568Z,70.55
2018-05-13T16:28:15.242Z,68.82
2018-05-13T16:30:41.944Z,66.05
2018-05-13T16:33:08.677Z,58.33
2018-05-13T16:35:35.385Z,62.20
2018-05-13T16:38:02.093Z,68.15
2018-05-13T16:40:28.784Z,61.25
2018-05-13T16:42:55.549Z,62.13
2018-05-13T16:45:22.224Z,73.18
2018-05-13T16:47:48.920Z,74.18
2018-05-13T16:50:15.593Z,65.05
2018-05-13T16:52:42.314Z,63.67
2018-05-13T16:55:08.996Z,69.78
2018-05-13T16:57:35.709Z,69.22
2018-05-13T17:00:02.377Z,73.53
2018-05-13T17:02:29.096Z,67.37
2018-05-13T17:04:55.696Z,73.45
2018-05-13T17:07:22.425Z,71.43
2018-05-13T17:09:49.091Z,78.72
2018-05-13T17:12:15.784Z,71.97
2018-05-13T17:14:42.483Z,68.80
2018-05-13T17:17:09.547Z,71.47
2018-05-13T17:19:36.205Z,70.82
2018-05-13T17:22:02.967Z,80.03
2018-05-13T17:24:29.642Z,74.60
2018-05-13T17:26:56.326Z,68.53
2018-05-13T17:29:23.043Z,70.40
2018-05-13T17:31:49.709Z,71.80
2018-05-13T17:34:16.530Z,71.40
2018-05-13T17:36:43.163Z,71.30
2018-05-13T17:39:10.473Z,66.35
2018-05-13T17:51:22.249Z,70.53
2018-05-13T17:53:49.559Z,66.82
2018-05-13T17:56:16.369Z,73.53
2018-05-13T17:58:47.820Z,67.30
2018-05-13T18:01:14.714Z,67.80
2018-05-13T18:03:41.409Z,71.95
2018-05-13T18:06:08.110Z,65.37
2018-05-13T18:08:34.828Z,66.10
2018-05-13T18:11:01.489Z,60.10
2018-05-13T18:13:28.191Z,62.62
2018-05-13T18:15:54.901Z,61.72
2018-05-13T18:18:21.566Z,64.25
2018-05-13T18:20:48.311Z,68.12
2018-05-13T18:23:15.373Z,67.62
2018-05-13T18:25:42.064Z,66.22
2018-05-13T18:28:08.789Z,70.22
2018-05-13T18:30:35.529Z,66.30
2018-05-13T18:33:02.273Z,73.28
2018-05-13T18:35:29.137Z,76.87
2018-05-13T18:37:55.812Z,72.03
2018-05-13T18:40:22.560Z,75.97
2018-05-13T18:42:49.264Z,75.05
2018-05-13T18:45:15.929Z,85.20
2018-05-13T18:47:42.678Z,74.68
2018-05-13T18:50:13.391Z,71.87
2018-05-13T18:52:40.086Z,72.68
2018-05-13T18:55:06.793Z,76.12
2018-05-13T18:57:34.257Z,77.97
2018-05-13T19:09:46.030Z,78.10
2018-05-13T19:12:12.789Z,86.60
2018-05-13T19:14:39.394Z,84.47
2018-05-13T19:17:06.312Z,85.03
2018-05-13T19:19:33.058Z,89.00
2018-05-13T19:21:59.745Z,79.12
2018-05-13T19:24:26.442Z,81.53
2018-05-13T19:26:53.178Z,80.00
2018-05-13T19:29:20.315Z,84.72
2018-05-13T19:31:46.997Z,85.35
2018-05-13T19:34:13.674Z,84.87
2018-05-13T19:36:40.433Z,84.37
2018-05-13T19:39:07.161Z,84.82
2018-05-13T19:41:34.050Z,90.25
2018-05-13T19:44:00.802Z,85.62
2018-05-13T19:46:27.493Z,83.72
2018-05-13T19:48:54.333Z,83.65
2018-05-13T19:51:21.089Z,91.43
2018-05-13T19:53:47.792Z,82.90
2018-05-13T19:56:14.555Z,89.62
2018-05-13T19:58:41.250Z,79.15
2018-05-13T20:01:08.874Z,106.55
2018-05-13T20:03:35.644Z,90.38
2018-05-13T20:06:02.265Z,91.50
2018-05-13T20:08:29.591Z,88.75
2018-05-13T20:10:56.289Z,86.00
2018-05-13T20:13:22.986Z,91.90
2018-05-13T20:15:49.703Z,87.80
2018-05-13T20:18:16.396Z,89.03
2018-05-13T20:20:43.121Z,101.25
2018-05-13T20:23:19.708Z,103.87
2018-05-13T20:25:47.323Z,93.32
2018-05-13T20:28:13.973Z,86.85
2018-05-13T20:30:40.677Z,94.43
2018-05-13T20:33:07.367Z,89.95
2018-05-13T20:35:34.067Z,93.90
2018-05-13T20:38:00.772Z,84.03
2018-05-13T20:40:27.690Z,91.68
2018-05-13T20:42:54.676Z,80.78
2018-05-13T20:45:21.354Z,78.87
2018-05-13T20:47:48.048Z,74.45
2018-05-13T20:50:14.724Z,68.97
2018-05-13T20:52:41.424Z,79.47
2018-05-13T20:55:08.130Z,71.47
2018-05-13T20:57:34.809Z,66.07
2018-05-13T21:00:01.467Z,67.20
2018-05-13T21:02:28.444Z,66.15
2018-05-13T21:04:55.092Z,70.93
2018-05-13T21:07:21.797Z,73.03
2018-05-13T21:09:48.435Z,75.78
2018-05-13T21:12:15.131Z,71.10
2018-05-13T21:14:41.779Z,64.43
2018-05-13T21:17:12.588Z,65.95
2018-05-13T21:19:39.230Z,77.32
2018-05-13T21:22:05.873Z,68.37
2018-05-13T21:24:32.567Z,67.28
2018-05-13T21:26:59.856Z,66.22
2018-05-13T21:29:26.510Z,68.80
2018-05-13T21:31:53.152Z,75.40
2018-05-13T21:34:19.835Z,64.90
2018-05-13T21:36:46.477Z,68.85
2018-05-13T21:39:13.159Z,67.00
2018-05-13T21:41:39.834Z,70.22
2018-05-13T21:44:06.608Z,77.85
2018-05-13T21:46:33.298Z,66.40
2018-05-13T21:48:59.938Z,66.43
2018-05-13T21:51:26.572Z,67.80
2018-05-13T21:53:53.248Z,61.08
2018-05-13T21:56:19.930Z,65.75
2018-05-13T21:58:46.576Z,66.93
2018-05-13T22:01:13.217Z,59.30
2018-05-13T22:03:39.892Z,63.72
2018-05-13T22:06:06.559Z,61.60
2018-05-13T22:08:33.360Z,70.22
2018-05-13T22:11:00.010Z,72.37
2018-05-13T22:13:26.655Z,69.60
2018-05-13T22:15:53.307Z,64.35
2018-05-13T22:18:19.980Z,76.93
2018-05-13T22:20:46.648Z,66.43
2018-05-13T22:23:13.282Z,65.60
2018-05-13T22:25:40.703Z,65.62
2018-05-13T22:28:07.266Z,62.62
2018-05-13T22:30:33.906Z,62.10
2018-05-13T22:33:00.550Z,65.55
2018-05-13T22:35:27.206Z,62.92
2018-05-13T22:37:53.911Z,66.28
2018-05-13T22:40:20.598Z,74.00
2018-05-13T22:42:50.966Z,74.25
2018-05-13T22:45:17.635Z,71.68
2018-05-13T22:47:44.274Z,70.57
2018-05-13T22:50:10.933Z,81.37
2018-05-13T22:52:37.875Z,72.78
2018-05-13T22:55:04.516Z,78.95
2018-05-13T22:57:31.205Z,75.57
2018-05-13T22:59:57.852Z,67.43
2018-05-13T23:02:24.538Z,117.07
2018-05-13T23:04:51.192Z,73.95
2018-05-13T23:07:17.845Z,71.68
2018-05-13T23:09:44.476Z,78.20
2018-05-13T23:12:11.099Z,78.65
2018-05-13T23:14:37.751Z,80.32
2018-05-13T23:17:04.391Z,77.95
2018-05-13T23:19:31.031Z,86.93
2018-05-13T23:21:57.678Z,81.43
2018-05-13T23:24:24.339Z,78.25
2018-05-13T23:26:50.966Z,72.45
2018-05-13T23:29:17.646Z,90.68
2018-05-13T23:31:44.276Z,96.03
2018-05-13T23:34:10.947Z,107.35
2018-05-13T23:36:37.595Z,77.55
2018-05-13T23:39:04.389Z,88.65
2018-05-13T23:41:31.028Z,75.40
2018-05-13T23:43:57.693Z,77.70
2018-05-13T23:46:24.389Z,86.12
2018-05-13T23:48:51.055Z,77.20
2018-05-13T23:51:17.704Z,71.00
2018-05-13T23:53:44.340Z,77.30
2018-05-13T23:56:10.977Z,78.37
2018-05-13T23:58:37.639Z,78.75
